This is the latest recevied weather packets stored in our database for station/object KC7WRB. If no packets are shown the sender has not sent any weather packets the latest 10 day(s).
| Time | Temp. | Humidity | Pressure | Rain* | Wind** | Luminosity | Snow |
|---|---|---|---|---|---|---|---|
| 1778347180 | 21.11° C | 23% | 1021.8 hPa | 0 mm | - | 761 W/m² | - |
| 1778346876 | 20.56° C | 24% | 1021.7 hPa | 0 mm | - | 749 W/m² | - |
| 1778346573 | 20.56° C | 24% | 1021.8 hPa | 0 mm | - | 736 W/m² | - |
| 1778346268 | 21.11° C | 25% | 1022 hPa | 0 mm | - | 723 W/m² | - |
| 1778345964 | 21.11° C | 25% | 1021.7 hPa | 0 mm | - | 710 W/m² | - |
| 1778345658 | 20.56° C | 27% | 1021.7 hPa | 0 mm | - | 696 W/m² | - |
| 1778345354 | 20.56° C | 28% | 1021.7 hPa | 0 mm | - | 680 W/m² | - |
| 1778345051 | 20° C | 28% | 1021.7 hPa | 0 mm | - | 666 W/m² | - |
| 1778344747 | 20° C | 29% | 1021.7 hPa | 0 mm | - | 651 W/m² | - |
| 1778344444 | 20° C | 31% | 1021.8 hPa | 0 mm | - | 634 W/m² | - |
| 1778344143 | 20° C | 29% | 1021.7 hPa | 0 mm | - | 621 W/m² | - |
| 1778343841 | 19.44° C | 33% | 1021.7 hPa | 0 mm | - | 602 W/m² | - |
| 1778343537 | 19.44° C | 33% | 1021.7 hPa | 0 mm | - | 585 W/m² | - |
| 1778343234 | 19.44° C | 32% | 1021.8 hPa | 0 mm | - | 568 W/m² | - |
| 1778342929 | 18.89° C | 33% | 1021.8 hPa | 0 mm | - | 509 W/m² | - |
| 1778342625 | 18.33° C | 34% | 1021.8 hPa | 0 mm | - | 531 W/m² | - |
| 1778342320 | 17.78° C | 36% | 1022 hPa | 0 mm | - | 512 W/m² | - |
| 1778342017 | 17.22° C | 36% | 1022 hPa | 0 mm | - | 494 W/m² | - |
| 1778341714 | 17.22° C | 40% | 1021.6 hPa | 0 mm | - | 417 W/m² | - |
| 1778341410 | 16.67° C | 40% | 1022 hPa | 0 mm | - | 456 W/m² | - |
| 1778341107 | 16.11° C | 43% | 1022 hPa | 0 mm | - | 435 W/m² | - |
| 1778340804 | 16.11° C | 42% | 1022 hPa | 0 mm | - | 415 W/m² | - |
| 1778340501 | 16.11° C | 42% | 1021.8 hPa | 0 mm | - | 400 W/m² | - |
| 1778340197 | 15.56° C | 46% | 1021.8 hPa | 0 mm | - | 379 W/m² | - |
| 1778339895 | 15° C | 47% | 1021.8 hPa | 0 mm | - | 359 W/m² | - |
* Rain latest hour (hover to see other rain measurements)
** Current wind speed in m/s (hover to see current wind gust speed)